createdAt,value
2022-09-16T00:00:01.191Z,142.815
2022-09-16T00:05:01.200Z,143.106
2022-09-16T00:10:07.335Z,143.01500000000001
2022-09-16T00:15:01.229Z,142.949
2022-09-16T00:20:01.246Z,238.635
2022-09-16T00:25:01.314Z,294.14300000000003
2022-09-16T00:30:01.232Z,290.092
2022-09-16T00:35:01.198Z,268.628
2022-09-16T00:40:07.915Z,169.053
2022-09-16T00:45:01.430Z,167.633
2022-09-16T00:50:01.260Z,166.88400000000001
2022-09-16T00:55:01.208Z,166.26
2022-09-16T01:00:01.290Z,158.632
2022-09-16T01:05:01.475Z,193.80100000000002
2022-09-16T01:10:05.488Z,261.699
2022-09-16T01:15:01.219Z,255.002
2022-09-16T01:20:01.239Z,241.651
2022-09-16T01:25:01.462Z,143.02
2022-09-16T01:30:01.366Z,143.29
2022-09-16T01:35:01.297Z,1442.849
2022-09-16T01:40:07.576Z,2265.635
2022-09-16T01:45:01.479Z,2470.9410000000003
2022-09-16T01:50:01.245Z,2938.5
2022-09-16T01:55:01.254Z,583.6320000000001
2022-09-16T02:00:01.271Z,269.428
2022-09-16T02:05:01.450Z,250.08100000000002
2022-09-16T02:10:06.975Z,147.647
2022-09-16T02:15:01.269Z,143.141
2022-09-16T02:20:01.327Z,143.239
2022-09-16T02:25:01.511Z,143.181
2022-09-16T02:30:01.299Z,143.215
2022-09-16T02:35:01.321Z,212.95000000000002
2022-09-16T02:40:04.832Z,294.466
2022-09-16T02:45:01.532Z,290.218
2022-09-16T02:50:01.320Z,279.44100000000003
2022-09-16T02:55:01.348Z,168.605
2022-09-16T03:00:01.431Z,167.114
2022-09-16T03:05:01.611Z,166.352
2022-09-16T03:10:06.515Z,165.488
2022-09-16T03:15:01.359Z,165.186
2022-09-16T03:20:01.408Z,199.01500000000001
2022-09-16T03:25:01.580Z,259.13
2022-09-16T03:30:01.360Z,252.756
2022-09-16T03:35:01.503Z,242.286
2022-09-16T03:40:08.449Z,141.606
2022-09-16T03:45:01.465Z,148.05700000000002
2022-09-16T03:50:01.415Z,161.61
2022-09-16T03:55:01.458Z,165.049
2022-09-16T04:00:01.475Z,185.124
2022-09-16T04:05:01.564Z,249.37300000000002
2022-09-16T04:10:06.351Z,340.776
2022-09-16T04:15:01.397Z,1113.145
2022-09-16T04:20:01.437Z,349.505
2022-09-16T04:25:01.569Z,241.99800000000002
2022-09-16T04:30:01.500Z,300.038
2022-09-16T04:35:01.447Z,366.859
2022-09-16T04:40:07.367Z,213.797
2022-09-16T04:45:01.605Z,227.958
2022-09-16T04:50:01.437Z,272.221
2022-09-16T04:55:01.388Z,357.19100000000003
2022-09-16T05:00:01.424Z,1422.175
2022-09-16T05:05:01.651Z,2501.312
2022-09-16T05:10:07.212Z,3137.1710000000003
2022-09-16T05:15:01.459Z,3515.931
2022-09-16T05:20:01.447Z,1556.777
2022-09-16T05:25:01.645Z,354.767
2022-09-16T05:30:01.470Z,367.017
2022-09-16T05:35:01.494Z,350.848
2022-09-16T05:40:05.315Z,350.274
2022-09-16T05:45:01.641Z,432.866
2022-09-16T05:50:01.478Z,253.937
2022-09-16T05:55:01.482Z,185.817
2022-09-16T06:00:01.463Z,145.711
2022-09-16T06:05:01.664Z,144.685
2022-09-16T06:10:06.978Z,145.879
2022-09-16T06:15:01.940Z,158.915
2022-09-16T06:20:01.467Z,170.374
2022-09-16T06:25:01.694Z,258.389
2022-09-16T06:30:01.471Z,284.999
2022-09-16T06:35:01.778Z,277.734
2022-09-16T06:40:11.191Z,238.52
2022-09-16T06:45:01.514Z,145.481
2022-09-16T06:50:01.556Z,145.74
2022-09-16T06:55:01.605Z,145.787
2022-09-16T07:00:01.653Z,145.57500000000002
2022-09-16T07:05:01.578Z,147.151
2022-09-16T07:10:05.543Z,269.66
2022-09-16T07:15:01.700Z,297.081
2022-09-16T07:20:01.707Z,293.132
2022-09-16T07:25:01.550Z,415.053
2022-09-16T07:30:03.575Z,172.574
2022-09-16T07:35:01.626Z,171.011
2022-09-16T07:40:08.942Z,169.993
2022-09-16T07:45:01.608Z,169.823
2022-09-16T07:50:01.563Z,168.506
2022-09-16T07:55:01.566Z,240.513
2022-09-16T08:00:01.773Z,264.569
2022-09-16T08:05:01.600Z,259.402
2022-09-16T08:10:08.924Z,216.147
2022-09-16T08:15:01.609Z,144.741
2022-09-16T08:20:01.760Z,145.99
2022-09-16T08:25:01.613Z,163.541
2022-09-16T08:30:01.728Z,170.66
2022-09-16T08:35:01.680Z,169.643
2022-09-16T08:40:05.452Z,271.017
2022-09-16T08:45:01.754Z,290.315
2022-09-16T08:50:01.782Z,262.676
2022-09-16T08:55:01.663Z,197.95000000000002
2022-09-16T09:00:01.874Z,248.382
2022-09-16T09:05:01.747Z,224.567
2022-09-16T09:10:10.031Z,148.03300000000002
2022-09-16T09:15:01.840Z,146.591
2022-09-16T09:20:01.674Z,146.46
2022-09-16T09:25:01.682Z,263.867
2022-09-16T09:30:01.774Z,290.53000000000003
2022-09-16T09:35:01.831Z,281.122
2022-09-16T09:40:07.879Z,250.09
2022-09-16T09:45:02.214Z,179.244
2022-09-16T09:50:01.706Z,184.291
2022-09-16T09:55:01.887Z,181.61
2022-09-16T10:00:01.799Z,177.29500000000002
2022-09-16T10:05:01.721Z,171.28
2022-09-16T10:10:04.700Z,269.035
2022-09-16T10:15:01.978Z,281.958
2022-09-16T10:20:01.715Z,255.583
2022-09-16T10:25:01.726Z,215.835
2022-09-16T10:30:01.746Z,229.029
2022-09-16T10:35:01.991Z,246.112
2022-09-16T10:40:07.762Z,144.53900000000002
2022-09-16T10:45:01.754Z,144.377
2022-09-16T10:50:01.961Z,159.828
2022-09-16T10:55:01.951Z,267.988
2022-09-16T11:00:01.719Z,289.615
2022-09-16T11:05:01.767Z,281.41700000000003
2022-09-16T11:10:08.728Z,239.566
2022-09-16T11:15:01.803Z,167.784
2022-09-16T11:20:01.754Z,159.467
2022-09-16T11:25:02.159Z,158.531
2022-09-16T11:30:01.892Z,155.234
2022-09-16T11:35:01.811Z,157.501
2022-09-16T11:40:06.485Z,265.358
2022-09-16T11:45:01.778Z,277.456
2022-09-16T11:50:01.941Z,283.932
2022-09-16T11:55:01.787Z,236.127
2022-09-16T12:00:02.067Z,200.371
2022-09-16T12:05:01.811Z,334.833
2022-09-16T12:15:05.392Z,193.006
2022-09-16T12:20:02.024Z,189.719
2022-09-16T12:25:01.838Z,298.426
2022-09-16T12:30:01.868Z,299.34000000000003
2022-09-16T12:35:01.859Z,269.092
2022-09-16T12:40:01.993Z,190.525
2022-09-16T12:45:02.105Z,185.505
2022-09-16T12:50:01.941Z,188.996
2022-09-16T12:55:08.002Z,187.54500000000002
2022-09-16T13:00:01.864Z,186.544
2022-09-16T13:05:01.865Z,194.327
2022-09-16T13:10:01.849Z,280.124
2022-09-16T13:15:01.876Z,269.409
2022-09-16T13:20:02.018Z,262.272
2022-09-16T13:25:06.198Z,180.905
2022-09-16T13:30:01.874Z,157.002
2022-09-16T13:35:02.182Z,160.026
2022-09-16T13:40:02.108Z,345.913
2022-09-16T13:45:01.934Z,183.012
2022-09-16T13:50:01.872Z,189.467
2022-09-16T13:55:10.790Z,301.68
2022-09-16T14:00:01.923Z,293.848
2022-09-16T14:05:01.905Z,337.79
2022-09-16T14:10:01.934Z,297.75
2022-09-16T14:15:02.168Z,611.941
2022-09-16T14:20:02.077Z,248.43
2022-09-16T14:25:07.072Z,300.984
2022-09-16T14:30:02.100Z,1207.34
2022-09-16T14:35:01.932Z,2543.882
2022-09-16T14:40:01.959Z,2528.359
2022-09-16T14:45:01.945Z,2174.29
2022-09-16T14:50:01.971Z,2458.699
2022-09-16T14:55:01.936Z,1570.085
2022-09-16T15:00:02.034Z,1843.721
2022-09-16T15:05:02.135Z,2038.354
2022-09-16T15:10:02.027Z,1514.323
2022-09-16T15:15:02.005Z,1612.615
2022-09-16T15:20:02.011Z,2153.007
2022-09-16T15:25:02.229Z,964.969
2022-09-16T15:30:01.989Z,1338.576
2022-09-16T15:35:01.997Z,1293.711
2022-09-16T15:40:02.075Z,2172.042
2022-09-16T15:45:02.266Z,336.877
2022-09-16T15:50:02.076Z,339.468
2022-09-16T15:55:01.978Z,344.993
2022-09-16T16:00:02.150Z,705.5550000000001
2022-09-16T16:05:01.992Z,527.217
2022-09-16T16:10:02.005Z,367.591
2022-09-16T16:15:02.000Z,274.194
2022-09-16T16:20:02.147Z,2636.006
2022-09-16T16:25:02.032Z,2949.9990000000003
2022-09-16T16:30:02.015Z,1868.015
2022-09-16T16:35:02.044Z,205.43
2022-09-16T16:40:02.332Z,419.592
2022-09-16T16:45:02.046Z,369.767
2022-09-16T16:50:02.053Z,320.84000000000003
2022-09-16T16:55:02.019Z,288.125
2022-09-16T17:00:02.221Z,182.987
2022-09-16T17:05:02.038Z,186.858
2022-09-16T17:10:02.085Z,1152.064
2022-09-16T17:15:02.096Z,569.955
2022-09-16T17:20:02.322Z,402.719
2022-09-16T17:25:02.188Z,1095.275
2022-09-16T17:30:02.129Z,2034.193
2022-09-16T17:35:02.066Z,1654.563
2022-09-16T17:40:02.333Z,399.891
2022-09-16T17:45:02.090Z,2334.186
2022-09-16T17:50:02.078Z,3059.916
2022-09-16T17:55:02.103Z,735.7810000000001
2022-09-16T18:00:02.379Z,293.41700000000003
2022-09-16T18:05:02.214Z,331.41200000000003
2022-09-16T18:10:02.326Z,390.779
2022-09-16T18:15:02.234Z,572.159
2022-09-16T18:20:06.909Z,374.92
2022-09-16T18:25:02.143Z,329.592
2022-09-16T18:30:02.115Z,267.551
2022-09-16T18:35:02.245Z,268.183
2022-09-16T18:40:02.429Z,289.098
2022-09-16T18:45:02.185Z,308.66
2022-09-16T18:50:02.118Z,393.761
2022-09-16T18:55:02.150Z,421.652
2022-09-16T19:00:02.415Z,423.968
2022-09-16T19:05:02.142Z,425.224
2022-09-16T19:10:02.164Z,327.92
2022-09-16T19:15:02.181Z,311.1
2022-09-16T19:20:02.149Z,308.593
2022-09-16T19:25:02.184Z,308.629
2022-09-16T19:30:02.174Z,351.21
2022-09-16T19:35:02.206Z,565.018
2022-09-16T19:40:02.199Z,1630.22
2022-09-16T19:45:02.251Z,6561.562
2022-09-16T19:50:02.247Z,4946.186
2022-09-16T19:55:02.317Z,1418.2350000000001
2022-09-16T20:00:02.209Z,440.634
2022-09-16T20:05:04.843Z,403.841
2022-09-16T20:10:02.228Z,959.604
2022-09-16T20:15:02.395Z,420.396
2022-09-16T20:20:02.261Z,529.333
2022-09-16T20:25:21.707Z,492.068
2022-09-16T20:30:02.259Z,748.9300000000001
2022-09-16T20:35:02.402Z,482.951
2022-09-16T20:40:02.312Z,421.507
2022-09-16T20:45:02.366Z,373.177
2022-09-16T20:50:02.375Z,361.005
2022-09-16T20:55:02.416Z,381.012
2022-09-16T21:00:02.313Z,396.973
2022-09-16T21:05:02.273Z,683.95
2022-09-16T21:10:02.469Z,415.56600000000003
2022-09-16T21:15:02.537Z,5013.823
2022-09-16T21:20:02.299Z,7827.512
2022-09-16T21:25:02.294Z,7771.031
2022-09-16T21:30:02.377Z,7775.995
2022-09-16T21:35:02.326Z,7784.744000000001
2022-09-16T21:40:02.372Z,8367.346
2022-09-16T21:45:02.304Z,10147.783
2022-09-16T21:50:02.498Z,10111.273000000001
2022-09-16T21:55:02.361Z,9944.549
2022-09-16T22:00:02.318Z,7892.917
2022-09-16T22:05:02.415Z,7822.028
2022-09-16T22:10:02.463Z,6300.588
2022-09-16T22:15:02.343Z,266.97700000000003
2022-09-16T22:20:02.345Z,283.849
2022-09-16T22:25:02.316Z,225.096
2022-09-16T22:30:02.531Z,547.5840000000001
2022-09-16T22:35:02.332Z,2050.558
2022-09-16T22:40:02.420Z,2970.7690000000002
2022-09-16T22:45:02.522Z,2104.495
2022-09-16T22:50:02.320Z,204.875
2022-09-16T22:55:02.351Z,177.559
2022-09-16T23:00:02.558Z,195.028
2022-09-16T23:05:02.562Z,170.262
2022-09-16T23:10:02.354Z,6903.903
2022-09-16T23:15:02.452Z,7646.985000000001
2022-09-16T23:20:02.444Z,7748.357
2022-09-16T23:25:02.378Z,7742.58
2022-09-16T23:30:02.387Z,7725.242
2022-09-16T23:35:02.461Z,7745.52
2022-09-16T23:40:02.534Z,146.556
2022-09-16T23:45:02.389Z,160.174
2022-09-16T23:50:02.393Z,170.798
2022-09-16T23:55:02.564Z,169.729
